createdAt,value
2023-09-11T00:01:53.453Z,14.75
2023-09-11T00:04:05.726Z,14.74
2023-09-11T00:06:17.611Z,14.69
2023-09-11T00:08:29.717Z,14.68
2023-09-11T00:10:41.787Z,14.65
2023-09-11T00:12:53.845Z,14.65
2023-09-11T00:15:05.959Z,14.67
2023-09-11T00:17:18.029Z,14.65
2023-09-11T00:19:30.075Z,14.64
2023-09-11T00:21:42.171Z,14.61
2023-09-11T00:23:54.273Z,14.57
2023-09-11T00:26:07.355Z,14.60
2023-09-11T00:28:19.400Z,14.60
2023-09-11T00:30:31.477Z,14.56
2023-09-11T00:32:43.652Z,14.56
2023-09-11T00:34:55.651Z,14.54
2023-09-11T00:37:07.747Z,14.50
2023-09-11T00:39:19.831Z,14.50
2023-09-11T00:41:32.038Z,14.50
2023-09-11T00:43:44.001Z,14.49
2023-09-11T00:45:56.065Z,14.47
2023-09-11T00:48:08.267Z,14.49
2023-09-11T00:50:20.319Z,14.46
2023-09-11T00:52:32.319Z,14.43
2023-09-11T00:54:44.382Z,14.42
2023-09-11T00:56:56.497Z,14.42
2023-09-11T00:59:08.564Z,14.38
2023-09-11T01:01:21.611Z,14.35
2023-09-11T01:03:33.770Z,14.32
2023-09-11T01:05:45.836Z,14.29
2023-09-11T01:07:57.877Z,14.25
2023-09-11T01:10:09.962Z,14.20
2023-09-11T01:12:22.027Z,14.17
2023-09-11T01:14:34.161Z,14.19
2023-09-11T01:16:46.183Z,14.17
2023-09-11T01:18:58.282Z,14.16
2023-09-11T01:21:11.356Z,14.13
2023-09-11T01:23:23.444Z,14.10
2023-09-11T01:25:35.484Z,14.07
2023-09-11T01:27:47.661Z,14.07
2023-09-11T01:29:59.641Z,14.09
2023-09-11T01:32:11.824Z,14.07
2023-09-11T01:34:23.814Z,14.06
2023-09-11T01:36:35.899Z,14.04
2023-09-11T01:38:48.001Z,14.02
2023-09-11T01:41:00.068Z,14.06
2023-09-11T01:43:12.196Z,14.01
2023-09-11T01:45:24.269Z,13.99
2023-09-11T01:47:36.364Z,13.95
2023-09-11T01:49:48.403Z,13.92
2023-09-11T01:52:00.476Z,13.92
2023-09-11T01:54:13.575Z,13.89
2023-09-11T01:56:25.659Z,13.84
2023-09-11T01:58:37.803Z,13.81
2023-09-11T01:59:37.767Z,13.79
2023-09-11T02:01:49.824Z,13.79
2023-09-11T02:04:02.033Z,13.77
2023-09-11T02:06:13.922Z,13.77
2023-09-11T02:08:26.054Z,13.73
2023-09-11T02:10:38.135Z,13.70
2023-09-11T02:12:50.170Z,13.69
2023-09-11T02:15:02.254Z,13.70
2023-09-11T02:17:14.351Z,13.69
2023-09-11T02:19:26.404Z,13.65
2023-09-11T02:21:38.543Z,13.63
2023-09-11T02:23:51.113Z,13.63
2023-09-11T02:26:02.709Z,13.61
2023-09-11T02:28:14.772Z,13.59
2023-09-11T02:30:26.907Z,13.58
2023-09-11T02:32:39.018Z,13.58
2023-09-11T02:34:50.998Z,13.56
2023-09-11T02:37:03.114Z,13.55
2023-09-11T02:39:15.201Z,13.51
2023-09-11T02:41:27.299Z,13.49
2023-09-11T02:43:39.398Z,13.44
2023-09-11T02:45:51.438Z,13.41
2023-09-11T02:48:03.581Z,13.38
2023-09-11T02:50:15.598Z,13.38
2023-09-11T02:52:27.673Z,13.33
2023-09-11T02:56:51.841Z,13.27
2023-09-11T02:59:03.895Z,13.25
2023-09-11T03:01:16.020Z,13.25
2023-09-11T03:03:28.183Z,13.22
2023-09-11T03:05:40.297Z,13.22
2023-09-11T03:07:52.231Z,13.20
2023-09-11T03:10:04.875Z,13.22
2023-09-11T03:12:16.390Z,13.20
2023-09-11T03:14:28.792Z,13.18
2023-09-11T03:16:40.872Z,13.22
2023-09-11T03:18:52.989Z,13.21
2023-09-11T03:21:05.034Z,13.20
2023-09-11T03:23:17.088Z,13.18
2023-09-11T03:25:29.195Z,13.17
2023-09-11T03:27:41.325Z,13.15
2023-09-11T03:29:54.856Z,13.15
2023-09-11T03:32:06.941Z,13.15
2023-09-11T03:34:19.179Z,13.15
2023-09-11T03:36:31.126Z,13.17
2023-09-11T03:38:43.541Z,13.14
2023-09-11T03:40:55.266Z,13.12
2023-09-11T03:43:07.354Z,13.09
2023-09-11T03:45:19.434Z,13.09
2023-09-11T03:47:31.621Z,13.04
2023-09-11T03:49:43.613Z,13.06
2023-09-11T03:51:55.670Z,13.04
2023-09-11T03:54:07.755Z,13.02
2023-09-11T03:56:19.817Z,13.03
2023-09-11T03:58:31.929Z,13.00
2023-09-11T04:00:44.073Z,12.97
2023-09-11T04:02:56.178Z,12.96
2023-09-11T04:05:08.234Z,12.96
2023-09-11T04:07:20.247Z,12.93
2023-09-11T04:09:33.589Z,12.92
2023-09-11T04:11:45.448Z,12.89
2023-09-11T04:13:57.485Z,12.87
2023-09-11T04:16:09.565Z,12.88
2023-09-11T04:18:21.723Z,12.93
2023-09-11T04:20:33.777Z,12.92
2023-09-11T04:22:45.842Z,12.92
2023-09-11T04:24:57.891Z,12.87
2023-09-11T04:27:11.003Z,12.89
2023-09-11T04:29:23.157Z,12.88
2023-09-11T04:31:35.168Z,12.87
2023-09-11T04:33:47.355Z,12.89
2023-09-11T04:35:59.385Z,12.89
2023-09-11T04:38:11.423Z,12.85
2023-09-11T04:40:23.497Z,12.87
2023-09-11T04:42:35.598Z,12.87
2023-09-11T04:44:47.711Z,12.88
2023-09-11T04:46:59.724Z,12.85
2023-09-11T04:49:11.829Z,12.84
2023-09-11T04:51:23.936Z,12.85
2023-09-11T04:53:39.563Z,12.87
2023-09-11T04:55:51.602Z,12.89
2023-09-11T04:58:03.640Z,12.93
2023-09-11T05:00:15.748Z,12.95
2023-09-11T05:02:27.836Z,12.96
2023-09-11T05:04:39.901Z,12.96
2023-09-11T05:06:51.989Z,12.97
2023-09-11T05:09:12.005Z,13.00
2023-09-11T05:11:16.153Z,13.07
2023-09-11T05:13:29.219Z,13.09
2023-09-11T05:15:41.313Z,13.12
2023-09-11T05:17:54.524Z,13.14
2023-09-11T05:20:06.453Z,13.20
2023-09-11T05:22:19.504Z,13.25
2023-09-11T05:24:31.608Z,13.33
2023-09-11T05:26:43.700Z,13.43
2023-09-11T05:28:55.790Z,13.52
2023-09-11T05:31:07.832Z,13.65
2023-09-11T05:33:20.020Z,13.73
2023-09-11T05:35:31.998Z,13.87
2023-09-11T05:37:44.073Z,13.95
2023-09-11T05:39:56.170Z,14.12
2023-09-11T05:42:08.266Z,14.20
2023-09-11T05:44:20.313Z,14.32
2023-09-11T05:46:32.408Z,14.46
2023-09-11T05:47:32.419Z,14.50
2023-09-11T05:49:44.455Z,14.64
2023-09-11T05:51:56.535Z,14.78
2023-09-11T05:54:10.530Z,14.94
2023-09-11T05:56:21.742Z,15.06
2023-09-11T05:58:33.809Z,15.21
2023-09-11T06:00:45.895Z,15.28
2023-09-11T06:02:58.038Z,15.38
2023-09-11T06:05:10.065Z,15.46
2023-09-11T06:07:22.279Z,15.57
2023-09-11T06:09:35.211Z,15.63
2023-09-11T06:11:49.308Z,15.70
2023-09-11T06:14:01.342Z,15.75
2023-09-11T06:16:14.937Z,15.85
2023-09-11T06:18:28.680Z,15.99
2023-09-11T06:20:40.849Z,16.14
2023-09-11T06:22:53.669Z,16.23
2023-09-11T06:25:05.776Z,16.31
2023-09-11T06:27:18.333Z,16.42
2023-09-11T06:29:30.966Z,16.50
2023-09-11T06:33:00.420Z,16.60
2023-09-11T06:35:13.490Z,16.71
2023-09-11T06:37:26.555Z,16.73
2023-09-11T06:39:38.623Z,16.77
2023-09-11T06:41:50.735Z,16.85
2023-09-11T06:44:06.301Z,16.92
2023-09-11T06:46:20.274Z,17.06
2023-09-11T06:48:32.155Z,17.17
2023-09-11T06:50:43.605Z,17.28
2023-09-11T06:52:55.611Z,17.38
2023-09-11T06:55:11.230Z,17.46
2023-09-11T06:57:26.790Z,17.57
2023-09-11T06:59:44.910Z,17.71
2023-09-11T07:00:44.842Z,17.74
2023-09-11T07:02:57.078Z,17.87
2023-09-11T07:05:10.553Z,17.99
2023-09-11T07:07:22.588Z,18.13
2023-09-11T07:09:34.701Z,18.27
2023-09-11T07:11:52.854Z,18.42
2023-09-11T07:14:05.414Z,18.62
2023-09-11T07:16:16.961Z,18.82
2023-09-11T07:18:30.624Z,19.08
2023-09-11T07:20:42.900Z,19.23
2023-09-11T07:22:54.667Z,19.40
2023-09-11T07:25:07.925Z,19.65
2023-09-11T07:27:24.827Z,19.84
2023-09-11T07:29:43.237Z,20.03
2023-09-11T07:31:59.682Z,20.21
2023-09-11T07:34:11.178Z,20.31
2023-09-11T07:36:26.470Z,20.39
2023-09-11T07:38:38.907Z,20.53
2023-09-11T07:40:54.120Z,20.64
2023-09-11T07:43:12.248Z,20.68
2023-09-11T07:45:25.840Z,20.69
2023-09-11T07:47:38.075Z,20.71
2023-09-11T07:49:53.478Z,20.80
2023-09-11T07:52:06.567Z,20.87
2023-09-11T07:54:24.952Z,20.99
2023-09-11T07:56:37.079Z,21.11
2023-09-11T07:58:52.626Z,21.20
2023-09-11T08:01:04.745Z,21.34
2023-09-11T08:03:22.920Z,21.63
2023-09-11T08:05:35.885Z,21.82
2023-09-11T08:07:53.915Z,22.02
2023-09-11T08:10:12.037Z,22.10
2023-09-11T08:12:24.115Z,22.32
2023-09-11T08:14:37.201Z,22.67
2023-09-11T08:16:50.814Z,22.83
2023-09-11T08:19:03.824Z,22.75
2023-09-11T08:21:19.441Z,22.90
2023-09-11T08:23:31.562Z,23.09
2023-09-11T08:25:45.094Z,23.47
2023-09-11T08:28:03.191Z,23.64
2023-09-11T08:30:15.241Z,23.64
2023-09-11T08:32:30.993Z,23.64
2023-09-11T08:34:46.410Z,23.68
2023-09-11T08:35:46.410Z,23.72
2023-09-11T08:37:58.547Z,23.77
2023-09-11T08:40:12.982Z,23.89
2023-09-11T08:42:24.167Z,24.10
2023-09-11T08:44:39.835Z,24.24
2023-09-11T08:46:53.401Z,24.37
2023-09-11T08:49:06.960Z,24.57
2023-09-11T08:51:25.020Z,24.75
2023-09-11T08:53:38.698Z,24.77
2023-09-11T08:57:07.878Z,25.02
2023-09-11T08:59:19.903Z,25.16
2023-09-11T09:01:35.624Z,25.22
2023-09-11T09:03:51.224Z,25.27
2023-09-11T09:06:06.752Z,25.31
2023-09-11T09:08:24.736Z,25.37
2023-09-11T09:10:36.832Z,25.52
2023-09-11T09:12:48.913Z,25.56
2023-09-11T09:15:02.687Z,25.71
2023-09-11T09:17:17.610Z,25.90
2023-09-11T09:19:33.150Z,26.05
2023-09-11T09:21:48.744Z,26.47
2023-09-11T09:24:00.863Z,26.74
2023-09-11T09:26:19.925Z,26.91
2023-09-11T09:28:34.836Z,26.99
2023-09-11T09:30:46.162Z,27.19
2023-09-11T09:33:04.214Z,27.47
2023-09-11T09:35:24.798Z,27.86
2023-09-11T09:37:38.354Z,28.17
2023-09-11T09:39:54.910Z,28.69
2023-09-11T09:42:14.563Z,28.90
2023-09-11T09:44:28.132Z,28.85
2023-09-11T09:46:41.233Z,29.07
2023-09-11T09:48:57.851Z,29.06
2023-09-11T09:51:10.048Z,29.01
2023-09-11T09:53:26.348Z,29.34
2023-09-11T09:55:41.064Z,29.52
2023-09-11T09:57:56.934Z,29.78
2023-09-11T10:00:13.412Z,30.07
2023-09-11T10:02:24.588Z,30.12
2023-09-11T10:04:40.174Z,30.34
2023-09-11T10:06:55.709Z,30.12
2023-09-11T10:09:11.431Z,30.03
2023-09-11T10:11:23.382Z,30.02
2023-09-11T10:13:36.562Z,30.23
2023-09-11T10:15:50.057Z,30.27
2023-09-11T10:18:03.728Z,30.49
2023-09-11T10:20:19.199Z,30.87
2023-09-11T10:22:32.278Z,30.83
2023-09-11T10:24:47.882Z,30.99
2023-09-11T10:27:03.585Z,31.30
2023-09-11T10:29:19.058Z,31.05
2023-09-11T10:31:32.652Z,30.86
2023-09-11T10:33:46.657Z,31.08
2023-09-11T10:36:01.876Z,31.30
2023-09-11T10:38:17.377Z,31.48
2023-09-11T10:40:29.505Z,31.39
2023-09-11T10:42:44.147Z,31.64
2023-09-11T10:44:59.680Z,31.58
2023-09-11T10:47:15.256Z,31.45
2023-09-11T10:49:30.801Z,31.50
2023-09-11T10:51:44.393Z,31.35
2023-09-11T10:53:58.053Z,31.06
2023-09-11T10:56:11.580Z,30.99
2023-09-11T10:58:27.199Z,31.04
2023-09-11T11:00:40.763Z,30.99
2023-09-11T11:02:54.487Z,31.17
2023-09-11T11:05:12.430Z,31.13
2023-09-11T11:07:25.986Z,31.06
2023-09-11T11:09:45.383Z,31.38
2023-09-11T11:12:02.203Z,31.46
2023-09-11T11:14:20.278Z,31.73
2023-09-11T11:16:35.872Z,32.24
2023-09-11T11:18:53.998Z,31.99
2023-09-11T11:21:12.091Z,32.03
2023-09-11T11:23:27.602Z,32.10
2023-09-11T11:25:40.709Z,32.17
2023-09-11T11:27:56.259Z,32.29
2023-09-11T11:30:09.906Z,32.42
2023-09-11T11:32:23.548Z,31.98
2023-09-11T11:34:41.540Z,31.33
2023-09-11T11:36:53.675Z,30.74
2023-09-11T11:39:11.855Z,30.46
2023-09-11T11:41:25.393Z,30.40
2023-09-11T11:43:41.154Z,30.29
2023-09-11T11:45:54.545Z,30.27
2023-09-11T11:48:10.201Z,30.30
2023-09-11T11:50:25.752Z,30.27
2023-09-11T11:52:39.354Z,30.12
2023-09-11T11:54:57.452Z,29.99
2023-09-11T11:57:13.045Z,30.02
2023-09-11T11:59:26.193Z,30.09
2023-09-11T12:01:40.683Z,30.24
2023-09-11T12:03:56.354Z,30.23
2023-09-11T12:06:14.447Z,30.24
2023-09-11T12:08:29.962Z,30.11
2023-09-11T12:10:45.579Z,29.99
2023-09-11T12:13:02.174Z,29.81
2023-09-11T12:15:15.754Z,29.90
2023-09-11T12:17:29.395Z,29.94
2023-09-11T12:19:44.894Z,29.93
2023-09-11T12:21:59.808Z,29.92
2023-09-11T12:24:17.932Z,29.87
2023-09-11T12:26:30.967Z,29.87
2023-09-11T12:28:49.078Z,29.84
2023-09-11T12:31:07.434Z,29.75
2023-09-11T12:33:26.629Z,29.74
2023-09-11T12:35:45.641Z,29.70
2023-09-11T12:38:00.183Z,29.87
2023-09-11T12:40:18.290Z,29.97
2023-09-11T12:42:36.389Z,30.09
2023-09-11T12:44:52.010Z,29.97
2023-09-11T12:47:06.584Z,29.92
2023-09-11T12:49:24.648Z,29.81
2023-09-11T12:51:37.744Z,29.70
2023-09-11T12:53:51.321Z,29.57
2023-09-11T12:56:04.916Z,29.53
2023-09-11T12:58:18.012Z,29.63
2023-09-11T13:00:32.592Z,29.70
2023-09-11T13:02:47.315Z,29.87
2023-09-11T13:05:00.263Z,29.92
2023-09-11T13:07:13.363Z,29.87
2023-09-11T13:09:26.465Z,29.79
2023-09-11T13:11:44.541Z,29.89
2023-09-11T13:14:14.093Z,30.07
2023-09-11T13:16:18.232Z,30.05
2023-09-11T13:18:34.944Z,29.99
2023-09-11T13:20:47.949Z,29.99
2023-09-11T13:23:02.389Z,29.93
2023-09-11T13:25:13.808Z,29.79
2023-09-11T13:27:30.206Z,29.74
2023-09-11T13:29:43.303Z,29.71
2023-09-11T13:32:01.360Z,29.70
2023-09-11T13:34:15.927Z,29.56
2023-09-11T13:36:31.040Z,29.43
2023-09-11T13:38:44.111Z,29.45
2023-09-11T13:41:00.374Z,29.74
2023-09-11T13:43:13.294Z,29.78
2023-09-11T13:45:29.229Z,29.75
2023-09-11T13:47:44.885Z,29.92
2023-09-11T13:49:58.392Z,29.86
2023-09-11T13:52:16.484Z,29.72
2023-09-11T13:54:28.546Z,29.56
2023-09-11T13:56:42.176Z,29.47
2023-09-11T13:58:55.764Z,29.43
2023-09-11T14:01:09.325Z,29.41
2023-09-11T14:03:23.040Z,29.50
2023-09-11T14:05:47.243Z,29.43
2023-09-11T14:07:56.555Z,29.31
2023-09-11T14:10:08.679Z,29.22
2023-09-11T14:12:25.210Z,29.06
2023-09-11T14:14:37.809Z,29.18
2023-09-11T14:16:50.032Z,29.40
2023-09-11T14:19:03.013Z,29.47
2023-09-11T14:21:15.139Z,29.72
2023-09-11T14:23:30.623Z,29.90
2023-09-11T14:25:48.706Z,29.84
2023-09-11T14:28:04.287Z,29.75
2023-09-11T14:30:17.920Z,29.55
2023-09-11T14:32:33.606Z,29.29
2023-09-11T14:34:46.516Z,29.28
2023-09-11T14:37:17.019Z,29.19
2023-09-11T14:39:16.760Z,28.96
2023-09-11T14:41:32.249Z,28.91
2023-09-11T14:43:47.863Z,28.91
2023-09-11T14:46:05.988Z,28.88
2023-09-11T14:48:21.611Z,28.73
2023-09-11T14:50:37.344Z,28.68
2023-09-11T14:52:50.697Z,28.58
2023-09-11T14:55:06.333Z,28.33
2023-09-11T14:57:24.562Z,28.10
2023-09-11T14:59:37.918Z,28.23
2023-09-11T15:01:53.539Z,28.40
2023-09-11T15:04:07.452Z,28.26
2023-09-11T15:06:22.783Z,28.07
2023-09-11T15:08:34.750Z,28.10
2023-09-11T15:10:46.842Z,28.19
2023-09-11T15:13:00.393Z,28.22
2023-09-11T15:15:16.055Z,28.19
2023-09-11T15:17:35.230Z,28.09
2023-09-11T15:19:49.645Z,28.04
2023-09-11T15:22:07.938Z,28.06
2023-09-11T15:24:23.333Z,27.95
2023-09-11T15:26:38.898Z,27.88
2023-09-11T15:28:53.490Z,27.74
2023-09-11T15:31:09.090Z,27.82
2023-09-11T15:33:22.696Z,27.76
2023-09-11T15:35:35.704Z,27.64
2023-09-11T15:37:51.278Z,27.48
2023-09-11T15:40:04.925Z,27.26
2023-09-11T15:42:19.498Z,27.19
2023-09-11T15:44:35.028Z,27.09
2023-09-11T15:46:47.180Z,26.99
2023-09-11T15:49:02.698Z,26.95
2023-09-11T15:51:15.846Z,26.95
2023-09-11T15:53:31.335Z,26.87
2023-09-11T15:55:43.431Z,26.87
2023-09-11T15:57:55.506Z,26.87
2023-09-11T16:00:11.159Z,26.86
2023-09-11T16:02:26.735Z,26.83
2023-09-11T16:04:42.371Z,26.91
2023-09-11T16:06:54.977Z,26.94
2023-09-11T16:09:12.527Z,26.87
2023-09-11T16:11:25.573Z,26.74
2023-09-11T16:13:36.723Z,26.64
2023-09-11T16:14:36.687Z,26.64
2023-09-11T16:15:36.691Z,26.58
2023-09-11T16:16:36.583Z,26.50
2023-09-11T16:17:37.494Z,26.44
2023-09-11T16:18:36.623Z,26.42
2023-09-11T16:19:37.474Z,26.39
2023-09-11T16:20:36.602Z,26.36
2023-09-11T16:21:41.033Z,26.31
2023-09-11T16:22:36.539Z,26.28
2023-09-11T16:23:36.474Z,26.22
2023-09-11T16:24:36.484Z,26.18
2023-09-11T16:25:36.498Z,26.12
2023-09-11T16:26:36.510Z,26.05
2023-09-11T16:27:36.443Z,26.05
2023-09-11T16:28:36.430Z,25.99
2023-09-11T16:29:36.531Z,25.98
2023-09-11T16:30:37.169Z,25.94
2023-09-11T16:31:36.450Z,25.91
2023-09-11T16:32:36.404Z,25.86
2023-09-11T16:33:36.603Z,25.83
2023-09-11T16:34:37.308Z,25.80
2023-09-11T16:35:36.359Z,25.77
2023-09-11T16:36:36.334Z,25.74
2023-09-11T16:37:36.357Z,25.71
2023-09-11T16:38:36.299Z,25.68
2023-09-11T16:39:36.291Z,25.65
2023-09-11T16:40:36.298Z,25.62
2023-09-11T16:41:36.262Z,25.56
2023-09-11T16:42:36.254Z,25.53
2023-09-11T16:43:36.263Z,25.47
2023-09-11T16:44:36.212Z,25.43
2023-09-11T16:45:36.255Z,25.39
2023-09-11T16:46:36.197Z,25.34
2023-09-11T16:47:36.218Z,25.30
2023-09-11T16:48:36.230Z,25.22
2023-09-11T16:49:36.266Z,25.16
2023-09-11T16:50:36.171Z,25.10
2023-09-11T16:51:36.109Z,25.05
2023-09-11T16:52:36.105Z,25.00
2023-09-11T16:53:36.118Z,24.95
2023-09-11T16:54:36.107Z,24.90
2023-09-11T16:55:36.124Z,24.88
2023-09-11T16:56:36.067Z,24.80
2023-09-11T16:57:36.086Z,24.80
2023-09-11T16:58:36.053Z,24.73
2023-09-11T16:59:36.040Z,24.71
2023-09-11T17:00:36.037Z,24.64
2023-09-11T17:01:36.035Z,24.61
2023-09-11T17:02:36.140Z,24.59
2023-09-11T17:03:36.100Z,24.53
2023-09-11T17:04:36.010Z,24.52
2023-09-11T17:05:35.961Z,24.45
2023-09-11T17:06:35.936Z,24.41
2023-09-11T17:07:35.985Z,24.38
2023-09-11T17:08:35.921Z,24.35
2023-09-11T17:09:35.926Z,24.32
2023-09-11T17:10:35.886Z,24.27
2023-09-11T17:11:35.870Z,24.23
2023-09-11T17:12:35.839Z,24.20
2023-09-11T17:13:35.879Z,24.14
2023-09-11T17:14:35.815Z,24.08
2023-09-11T17:15:35.832Z,24.05
2023-09-11T17:16:35.851Z,24.01
2023-09-11T17:17:35.767Z,23.97
2023-09-11T17:18:35.843Z,23.94
2023-09-11T17:19:35.770Z,23.89
2023-09-11T17:20:35.739Z,23.85
2023-09-11T17:21:35.742Z,23.83
2023-09-11T17:22:35.894Z,23.80
2023-09-11T17:23:35.701Z,23.77
2023-09-11T17:24:35.685Z,23.71
2023-09-11T17:25:35.716Z,23.67
2023-09-11T17:26:35.668Z,23.61
2023-09-11T17:27:35.653Z,23.55
2023-09-11T17:28:35.641Z,23.49
2023-09-11T17:29:35.718Z,23.45
2023-09-11T17:30:35.645Z,23.42
2023-09-11T17:31:35.623Z,23.34
2023-09-11T17:32:35.626Z,23.31
2023-09-11T17:33:35.649Z,23.26
2023-09-11T17:34:35.539Z,23.20
2023-09-11T17:35:35.538Z,23.17
2023-09-11T17:36:35.519Z,23.11
2023-09-11T17:37:35.548Z,23.05
2023-09-11T17:38:35.511Z,22.97
2023-09-11T17:39:56.828Z,22.94
2023-09-11T17:40:35.453Z,22.92
2023-09-11T17:41:35.453Z,22.87
2023-09-11T17:42:35.449Z,22.86
2023-09-11T17:43:35.473Z,22.83
2023-09-11T17:44:35.428Z,22.80
2023-09-11T17:45:35.423Z,22.74
2023-09-11T17:46:35.437Z,22.68
2023-09-11T17:47:35.438Z,22.60
2023-09-11T17:48:35.425Z,22.59
2023-09-11T17:49:36.336Z,22.53
2023-09-11T17:50:35.368Z,22.47
2023-09-11T17:51:35.371Z,22.43
2023-09-11T17:52:35.325Z,22.37
2023-09-11T17:53:35.304Z,22.32
2023-09-11T17:54:35.312Z,22.25
2023-09-11T17:55:35.312Z,22.19
2023-09-11T17:56:36.150Z,22.13
2023-09-11T17:57:36.176Z,22.10
2023-09-11T17:58:35.252Z,22.06
2023-09-11T17:59:35.221Z,22.04
2023-09-11T18:00:35.280Z,21.99
2023-09-11T18:01:35.236Z,21.97
2023-09-11T18:02:35.326Z,21.95
2023-09-11T18:03:35.348Z,21.92
2023-09-11T18:04:35.299Z,21.91
2023-09-11T18:05:35.163Z,21.85
2023-09-11T18:06:35.131Z,21.82
2023-09-11T18:07:35.150Z,21.79
2023-09-11T18:08:35.127Z,21.75
2023-09-11T18:09:35.984Z,21.72
2023-09-11T18:10:35.087Z,21.71
2023-09-11T18:11:35.074Z,21.67
2023-09-11T18:12:37.879Z,21.66
2023-09-11T18:13:35.939Z,21.64
2023-09-11T18:14:35.025Z,21.60
2023-09-11T18:15:35.028Z,21.56
2023-09-11T18:16:35.070Z,21.51
2023-09-11T18:17:35.137Z,21.46
2023-09-11T18:18:35.119Z,21.45
2023-09-11T18:19:35.033Z,21.42
2023-09-11T18:20:34.992Z,21.39
2023-09-11T18:21:35.708Z,21.38
2023-09-11T18:22:34.915Z,21.35
2023-09-11T18:23:34.921Z,21.29
2023-09-11T18:24:36.595Z,21.26
2023-09-11T18:25:34.891Z,21.24
2023-09-11T18:26:34.879Z,21.23
2023-09-11T18:27:34.971Z,21.17
2023-09-11T18:29:59.529Z,21.16
2023-09-11T18:32:11.630Z,21.13
2023-09-11T18:34:23.780Z,21.05
2023-09-11T18:36:35.930Z,21.02
2023-09-11T18:38:50.526Z,20.95
2023-09-11T18:41:10.650Z,20.89
2023-09-11T18:43:22.078Z,20.80
2023-09-11T18:45:34.559Z,20.72
2023-09-11T18:47:49.436Z,20.64
2023-09-11T18:52:24.544Z,20.53
2023-09-11T18:54:43.513Z,20.49
2023-09-11T18:57:00.127Z,20.46
2023-09-11T19:05:17.582Z,20.24
2023-09-11T19:08:09.904Z,20.08
2023-09-11T19:09:09.828Z,20.06
2023-09-11T19:11:31.668Z,20.08
2023-09-11T19:13:45.918Z,20.03
2023-09-11T19:19:00.181Z,19.86
2023-09-11T19:21:28.850Z,19.80
2023-09-11T19:22:28.307Z,19.76
2023-09-11T19:24:40.883Z,19.72
2023-09-11T19:26:55.533Z,19.65
2023-09-11T19:29:08.937Z,19.58
2023-09-11T19:31:30.591Z,19.54
2023-09-11T19:35:01.243Z,19.53
2023-09-11T19:37:13.620Z,19.51
2023-09-11T19:39:27.558Z,19.47
2023-09-11T19:41:39.529Z,19.40
2023-09-11T19:43:51.086Z,19.35
2023-09-11T19:46:46.807Z,19.31
2023-09-11T19:47:46.836Z,19.24
2023-09-11T19:49:59.301Z,19.21
2023-09-11T19:52:24.017Z,19.14
2023-09-11T19:54:35.916Z,19.11
2023-09-11T19:56:54.043Z,19.11
2023-09-11T19:59:07.576Z,19.06
2023-09-11T20:01:19.670Z,18.99
2023-09-11T20:03:31.958Z,18.97
2023-09-11T20:05:43.842Z,18.90
2023-09-11T20:07:55.986Z,18.87
2023-09-11T20:10:08.074Z,18.90
2023-09-11T20:11:08.019Z,18.86
2023-09-11T20:13:20.106Z,18.87
2023-09-11T20:15:32.356Z,18.90
2023-09-11T20:17:44.303Z,18.86
2023-09-11T20:19:56.391Z,18.84
2023-09-11T20:22:08.428Z,18.79
2023-09-11T20:24:20.551Z,18.73
2023-09-11T20:26:32.602Z,18.70
2023-09-11T20:28:44.807Z,18.65
2023-09-11T20:30:56.753Z,18.59
2023-09-11T20:33:08.906Z,18.55
2023-09-11T20:35:20.896Z,18.49
2023-09-11T20:37:33.980Z,18.43
2023-09-11T20:39:46.049Z,18.40
2023-09-11T20:41:58.488Z,18.42
2023-09-11T20:44:10.500Z,18.40
2023-09-11T20:46:23.594Z,18.34
2023-09-11T20:48:37.040Z,18.31
2023-09-11T20:50:47.723Z,18.27
2023-09-11T20:52:59.891Z,18.21
2023-09-11T20:55:11.948Z,18.18
2023-09-11T20:57:24.050Z,18.15
2023-09-11T20:59:36.149Z,18.15
2023-09-11T21:01:48.200Z,18.10
2023-09-11T21:04:00.393Z,18.06
2023-09-11T21:06:13.548Z,18.02
2023-09-11T21:08:24.699Z,17.99
2023-09-11T21:10:36.769Z,17.99
2023-09-11T21:12:48.859Z,17.99
2023-09-11T21:15:01.022Z,17.99
2023-09-11T21:17:13.088Z,17.97
2023-09-11T21:19:25.169Z,17.91
2023-09-11T21:21:37.254Z,17.89
2023-09-11T21:23:49.276Z,17.84
2023-09-11T21:26:02.883Z,17.78
2023-09-11T21:28:15.942Z,17.74
2023-09-11T21:30:28.053Z,17.76
2023-09-11T21:32:41.666Z,17.76
2023-09-11T21:34:54.114Z,17.73
2023-09-11T21:37:05.272Z,17.69
2023-09-11T21:39:17.413Z,17.62
2023-09-11T21:41:29.395Z,17.57
2023-09-11T21:43:41.514Z,17.54
2023-09-11T21:45:53.563Z,17.51
2023-09-11T21:48:05.701Z,17.47
2023-09-11T21:50:17.712Z,17.43
2023-09-11T21:52:29.794Z,17.44
2023-09-11T21:54:41.921Z,17.46
2023-09-11T21:56:55.250Z,17.44
2023-09-11T21:59:07.341Z,17.41
2023-09-11T22:01:19.452Z,17.38
2023-09-11T22:03:33.029Z,17.35
2023-09-11T22:05:45.074Z,17.35
2023-09-11T22:07:58.662Z,17.35
2023-09-11T22:10:10.774Z,17.32
2023-09-11T22:12:22.852Z,17.28
2023-09-11T22:14:36.040Z,17.26
2023-09-11T22:16:48.027Z,17.25
2023-09-11T22:19:00.160Z,17.23
2023-09-11T22:21:12.860Z,17.20
2023-09-11T22:23:24.214Z,17.15
2023-09-11T22:25:36.290Z,17.13
2023-09-11T22:27:48.432Z,17.11
2023-09-11T22:30:01.510Z,17.06
2023-09-11T22:32:14.428Z,17.00
2023-09-11T22:34:27.263Z,16.96
2023-09-11T22:36:38.708Z,16.96
2023-09-11T22:38:51.753Z,16.95
2023-09-11T22:41:03.823Z,16.95
2023-09-11T22:43:15.916Z,16.93
2023-09-11T22:45:29.495Z,16.93
2023-09-11T22:47:41.564Z,16.89
2023-09-11T22:49:53.615Z,16.86
2023-09-11T22:52:05.690Z,16.85
2023-09-11T22:54:17.855Z,16.80
2023-09-11T22:56:29.864Z,16.81
2023-09-11T22:58:42.139Z,16.78
2023-09-11T23:00:55.521Z,16.75
2023-09-11T23:03:07.691Z,16.73
2023-09-11T23:05:19.717Z,16.70
2023-09-11T23:07:33.662Z,16.65
2023-09-11T23:09:45.857Z,16.60
2023-09-11T23:11:57.950Z,16.58
2023-09-11T23:14:11.000Z,16.56
2023-09-11T23:16:23.107Z,16.59
2023-09-11T23:18:35.215Z,16.62
2023-09-11T23:20:47.353Z,16.58
2023-09-11T23:22:59.320Z,16.53
2023-09-11T23:25:11.399Z,16.50
2023-09-11T23:27:23.559Z,16.48
2023-09-11T23:29:35.550Z,16.42
2023-09-11T23:31:47.674Z,16.44
2023-09-11T23:33:59.715Z,16.48
2023-09-11T23:36:13.390Z,16.44
2023-09-11T23:38:25.407Z,16.41
2023-09-11T23:40:37.453Z,16.40
2023-09-11T23:42:51.046Z,16.37
2023-09-11T23:45:03.153Z,16.31
2023-09-11T23:47:15.215Z,16.26
2023-09-11T23:49:28.818Z,16.23
2023-09-11T23:51:40.932Z,16.22
2023-09-11T23:53:53.582Z,16.18
2023-09-11T23:56:05.035Z,16.18
2023-09-11T23:58:17.114Z,16.16
